Avord, France

1:53 AM CEST on September 20, 2014 (GMT +0200)
Avord Air Base | Change Station
CLOSE
Current Station
Airport
Location: Avord,
Elevation: 581 ft
Nearby Weather Stations

Elev 581 ft 47.05 °N, 2.63 °E | Updated 23 minutes ago

Clear
Clear
61 °F
Feels Like 61 °F
N
4
Wind Variable Wind from ESE

Today
High -- | Low -- °F
--% Chance of Precip.
Yesterday
High -- | Low -- °F
Precip. -- in
7:33 AM 7:51 PM
Waning Crescent, 16% visible
Pressure 29.92 in
Visibility 6.2 miles
Clouds
Dew Point 59 °F
Humidity 94%
Rainfall 0.00 in
Snow Depth Not available.
UV Not available.
Pollen Not available.
Air Quality Not available.
Flu Activity Not available.
METAR LFOA 192330Z AUTO 12003KT 9999 NSC 16/15 Q1013

More Conditions Fewer Conditions

Pressure 29.92 in
Visibility 6.2 miles
Clouds
Dew Point 59 °F
Humidity 94%
Rainfall 0.00 in
Snow Depth Not available.
UV Not available.
Pollen Not available.
Air Quality Not available.
Flu Activity Not available.
METAR LFOA 192330Z AUTO 12003KT 9999 NSC 16/15 Q1013

More Conditions Fewer Conditions

10-Day Weather Forecast

Almanac

Astronomy

Sep. 20, 2014 Rise Set
Actual Time 7:33 AM CEST 7:51 PM CEST
Civil Twilight 7:02 AM CEST 8:22 PM CEST
Nautical Twilight 6:26 AM CEST 8:57 PM CEST
Astronomical Twilight 5:49 AM CEST 9:34 PM CEST
Moon 3:47 AM CEST (9/20) 5:55 PM CEST (9/20)
Length of Visible Light 13h 19m
Length of Day
12h 18m
Tomorrow will be 3m 21s shorter.
Waning Crescent, 16% of the Moon is Illuminated
Sep 19
Waning Crescent
Sep 24
New
Oct 1
First Quarter
Oct 8
Full
Oct 15
Last Quarter

Yesterday's Extremes

Country Highs Country Lows

Community

WunderPhotos

Upload Photos

1,754,730 photos uploaded!

Nearby

Snow Depth

Not available.

Earthquake Activity

City Distance Mag. Time & Date
No recent earthquake activity has been reported nearby.
Minimum magnitude displayed is 2.5.

Coastal Water Temperatures

Place Temperature
No Stations Reporting

Nearby Weather Stations